x

Devils Island, Wi (disw3) Weather Station

10:00pm - Tue 7th Jul 2015 All times are CDT. -5 hours from GMT.

  • Wind
    10mph, 11mph gusts
  • Air Temp 63°f
  • Sea Pressure 1019mb
  • Devils Island, Wi
  • Devils Island, Wi

More Historic Weather Station data

Upgrade to MSW Pro to gain access to the past 30 days of data for over 8000 Wavebouys and Weather Stations around the globe.

Join Pro

Comparision Forecast

View Surf forecast
   
Tue 07/07 10:00pm 10 11 mph 1019mb 63f
9:00pm 9 11 mph 1018.7mb 64f
8:00pm 7 9 mph 1018.8mb 65f
7:00pm 7 10 mph 1018.8mb 65f
6:00pm 7 9 mph 1019mb 66f
5:00pm 6 7 mph 1019.3mb 64f
4:00pm 5 6 mph 1019.6mb 64f
3:00pm 6 8 mph 1019.6mb 64f
2:00pm 7 9 mph 1020mb 62f
1:00pm 6 8 mph 1020.3mb 60f
12:00pm 6 8 mph 1020.6mb 60f
11:00am 3 5 mph 1020.8mb 60f
10:00am 8 9 mph 1020.9mb 56f
9:00am 13 14 mph 1020.5mb 56f
8:00am 15 18 mph 1020.2mb 56f
7:00am 15 17 mph 1019.4mb 55f
6:00am 15 16 mph 1019mb 56f
5:00am 16 18 mph 1018.4mb 56f
4:00am 15 16 mph 1017.8mb 56f
3:00am 16 20 mph 1017.3mb 56f
2:00am 15 18 mph 1017.1mb 56f
1:00am 16 18 mph 1016.9mb 57f
12:00am 17 21 mph 1016.4mb 57f
Mon 07/06 11:00pm 17 22 mph 1016.6mb 58f
10:00pm 23 26 mph 1015.8mb 59f
9:00pm 16 18 mph 1014.3mb 61f
8:00pm 10 11 mph 1013.6mb 60f
7:00pm 8 10 mph 1013.4mb 60f
6:00pm 6 7 mph 1013.2mb 60f
5:00pm 3 6 mph 1013.1mb 60f
4:00pm 6 7 mph 1013.2mb 58f
3:00pm 1 2 mph 1013.1mb 59f
2:00pm 7
mph
1012.9mb 58f
1:00pm 10 13 mph 1012.3mb 59f
12:00pm 10 13 mph 1012.7mb 60f
11:00am 11 13 mph 1012.2mb 60f
10:00am 15 17 mph 1011mb 60f
9:00am 16 20 mph 1011mb 60f
8:00am 16 17 mph 1011.3mb 61f
7:00am 13 14 mph 1010.7mb 64f
6:00am 10 13 mph 1010.4mb 64f
5:00am 10 13 mph 1009.4mb 63f
4:00am 16 18 mph 1009.1mb 63f
3:00am 15 17 mph 1008.4mb 65f
2:00am 17 20 mph 1009.7mb 64f
1:00am 11 14 mph 1009.2mb 64f
12:00am 15 17 mph 1009.4mb 65f
Sun 07/05 11:00pm 11 16 mph 1007.9mb 74f
10:00pm 9 13 mph 1007.6mb 74f
9:00pm 3 5 mph 1007.5mb 68f
8:00pm 13 17 mph 1007.2mb 78f
7:00pm 6
mph
1008.1mb 75f
6:00pm 7 8 mph 1008.6mb 75f
5:00pm 11 15 mph 1009mb -
4:00pm 7 8 mph 1010.2mb 64f
3:00pm 9 10 mph 1011.2mb -
2:00pm 6 7 mph 1011.4mb 74f
1:00pm 14 17 mph 1011.2mb -
12:00pm 6
mph
1012.1mb 61f
11:00am 3 5 mph 1012.3mb 62f
10:00am 3 6 mph 1012.8mb 62f
9:00am 2 5 mph 1012.9mb 60f
8:00am 8 10 mph 1012.9mb 65f
7:00am 8 11 mph 1013mb 62f
6:00am 9 11 mph 1013.3mb 58f
5:00am 7 8 mph 1014mb 58f
4:00am 2 3 mph 1013.7mb 58f
3:00am 1
mph
1013mb 57f
2:00am 2
mph
1013mb 57f
1:00am 5
mph
1013.3mb 56f
12:00am 7 8 mph 1013.8mb 56f
Sat 07/04 11:00pm 11 13 mph 1014.2mb 55f
10:00pm 8 9 mph 1013.6mb 58f
9:00pm 7 8 mph 1012.5mb 58f
8:00pm 9 10 mph 1013mb 58f
7:00pm 11 14 mph 1013.5mb 58f
6:00pm 11 13 mph 1013.9mb 57f
5:00pm 13 15 mph 1014.3mb 57f
4:00pm 10 11 mph 1014.8mb 58f
3:00pm 10 11 mph 1015mb 57f
2:00pm 11 14 mph 1015.3mb 58f
1:00pm 9 11 mph 1015.3mb 58f
12:00pm 8
mph
1015.4mb 58f
11:00am 6 7 mph 1015.5mb 57f
10:00am 9 11 mph 1015.5mb 57f
9:00am 8 10 mph 1015.5mb 58f
8:00am 8 9 mph 1015.5mb 58f
7:00am 8 9 mph 1015.1mb 58f
6:00am 6
mph
1014.7mb 58f
5:00am 5 6 mph 1014.2mb 57f